createdAt,value
2022-12-04T00:00:25.417Z,56.25
2022-12-04T00:03:28.120Z,60.50
2022-12-04T00:06:30.985Z,58.35
2022-12-04T00:09:33.690Z,63.03
2022-12-04T00:12:36.387Z,59.10
2022-12-04T00:15:43.204Z,58.50
2022-12-04T00:18:46.316Z,56.22
2022-12-04T00:21:52.051Z,54.90
2022-12-04T00:24:54.844Z,59.72
2022-12-04T00:27:57.413Z,49.83
2022-12-04T00:31:00.918Z,55.05
2022-12-04T00:34:07.972Z,49.73
2022-12-04T00:37:13.214Z,50.50
2022-12-04T00:40:15.993Z,47.15
2022-12-04T00:43:19.658Z,51.17
2022-12-04T00:46:23.101Z,53.08
2022-12-04T00:49:26.256Z,61.85
2022-12-04T00:52:29.278Z,51.80
2022-12-04T00:55:32.413Z,55.88
2022-12-04T00:58:36.110Z,49.30
2022-12-04T01:01:38.976Z,48.65
2022-12-04T01:04:41.831Z,53.13
2022-12-04T01:07:44.671Z,54.55
2022-12-04T01:10:47.845Z,46.10
2022-12-04T01:13:50.674Z,49.60
2022-12-04T01:16:53.922Z,55.67
2022-12-04T01:19:57.933Z,57.90
2022-12-04T01:23:00.600Z,53.80
2022-12-04T01:26:03.971Z,42.72
2022-12-04T01:29:06.560Z,49.53
2022-12-04T01:32:09.790Z,48.13
2022-12-04T01:35:12.672Z,47.50
2022-12-04T01:38:15.294Z,51.92
2022-12-04T01:41:22.396Z,52.47
2022-12-04T01:44:26.591Z,56.47
2022-12-04T01:47:29.303Z,52.22
2022-12-04T01:50:32.891Z,52.53
2022-12-04T01:53:40.104Z,50.95
2022-12-04T01:56:47.567Z,50.83
2022-12-04T01:59:53.827Z,52.35
2022-12-04T02:02:57.344Z,49.47
2022-12-04T02:06:00.949Z,49.17
2022-12-04T02:09:04.176Z,51.75
2022-12-04T02:12:19.483Z,46.42
2022-12-04T02:15:30.068Z,48.83
2022-12-04T02:18:38.647Z,43.33
2022-12-04T02:21:46.009Z,50.42
2022-12-04T02:25:20.558Z,37.58
2022-12-04T02:28:43.658Z,42.22
2022-12-04T02:32:06.396Z,44.95
2022-12-04T02:35:16.240Z,43.53
2022-12-04T02:38:28.807Z,45.33
2022-12-04T02:41:54.853Z,40.65
2022-12-04T02:45:02.452Z,51.08
2022-12-04T02:48:08.507Z,53.53
2022-12-04T02:51:15.044Z,48.15
2022-12-04T02:54:26.605Z,59.40
2022-12-04T02:57:35.592Z,51.97
2022-12-04T03:00:39.986Z,54.22
2022-12-04T03:03:42.667Z,50.63
2022-12-04T03:06:51.352Z,51.70
2022-12-04T03:10:02.519Z,45.73
2022-12-04T03:13:12.451Z,56.28
2022-12-04T03:16:15.199Z,52.90
2022-12-04T03:19:24.571Z,51.93
2022-12-04T03:22:28.778Z,46.78
2022-12-04T03:25:41.905Z,49.42
2022-12-04T03:28:53.079Z,55.53
2022-12-04T03:32:09.528Z,50.65
2022-12-04T03:35:31.667Z,49.85
2022-12-04T03:38:47.615Z,53.22
2022-12-04T03:41:53.343Z,51.07
2022-12-04T03:45:18.901Z,50.85
2022-12-04T03:48:31.553Z,48.08
2022-12-04T03:51:43.563Z,43.53
2022-12-04T03:54:57.573Z,44.75
2022-12-04T03:58:06.270Z,50.05
2022-12-04T04:01:12.015Z,50.65
2022-12-04T04:04:27.660Z,48.42
2022-12-04T04:07:38.054Z,46.15
2022-12-04T04:10:41.581Z,48.10
2022-12-04T04:14:12.067Z,43.57
2022-12-04T04:17:38.701Z,48.50
2022-12-04T04:21:03.407Z,52.70
2022-12-04T04:24:16.882Z,53.60
2022-12-04T04:27:19.818Z,47.42
2022-12-04T04:30:23.361Z,54.25
2022-12-04T04:33:27.551Z,48.22
2022-12-04T04:36:44.807Z,47.17
2022-12-04T04:40:05.119Z,49.78
2022-12-04T04:43:30.360Z,47.85
2022-12-04T04:46:38.041Z,51.00
2022-12-04T04:49:43.630Z,52.90
2022-12-04T04:52:50.250Z,55.00
2022-12-04T04:55:53.884Z,43.13
2022-12-04T04:58:56.843Z,57.38
2022-12-04T05:01:59.840Z,48.65
2022-12-04T05:05:02.477Z,48.42
2022-12-04T05:08:05.561Z,62.13
2022-12-04T05:11:14.908Z,61.13
2022-12-04T05:14:18.121Z,59.78
2022-12-04T05:17:20.799Z,62.07
2022-12-04T05:20:24.006Z,61.08
2022-12-04T05:23:26.736Z,61.65
2022-12-04T05:26:29.324Z,51.70
2022-12-04T05:29:35.870Z,57.90
2022-12-04T05:32:39.331Z,52.85
2022-12-04T05:35:41.812Z,54.75
2022-12-04T05:38:44.623Z,47.10
2022-12-04T05:41:47.634Z,47.67
2022-12-04T05:44:50.796Z,52.83
2022-12-04T05:47:53.326Z,49.97
2022-12-04T05:50:56.049Z,46.63
2022-12-04T05:53:58.809Z,53.15
2022-12-04T05:57:01.951Z,55.57
2022-12-04T06:00:05.237Z,64.30
2022-12-04T06:03:14.150Z,63.33
2022-12-04T06:06:22.063Z,71.78
2022-12-04T06:09:25.563Z,69.82
2022-12-04T06:12:29.444Z,56.10
2022-12-04T06:15:32.575Z,69.57
2022-12-04T06:18:35.190Z,72.40
2022-12-04T06:21:40.241Z,62.88
2022-12-04T06:24:42.942Z,64.55
2022-12-04T06:27:45.907Z,50.27
2022-12-04T06:30:48.825Z,52.70
2022-12-04T06:33:53.709Z,49.83
2022-12-04T06:36:56.332Z,49.60
2022-12-04T06:39:59.289Z,52.45
2022-12-04T06:43:02.192Z,53.90
2022-12-04T06:46:06.138Z,45.75
2022-12-04T06:49:10.143Z,45.40
2022-12-04T06:52:13.050Z,43.40
2022-12-04T06:55:15.988Z,39.25
2022-12-04T06:58:19.175Z,43.53
2022-12-04T07:01:25.116Z,46.20
2022-12-04T07:04:28.315Z,50.65
2022-12-04T07:07:30.774Z,68.43
2022-12-04T07:10:36.884Z,69.45
2022-12-04T07:13:39.431Z,66.55
2022-12-04T07:16:42.981Z,61.00
2022-12-04T07:19:46.634Z,57.07
2022-12-04T07:22:50.377Z,55.92
2022-12-04T07:25:52.978Z,56.08
2022-12-04T07:28:56.691Z,56.13
2022-12-04T07:31:59.631Z,56.40
2022-12-04T07:35:03.585Z,62.63
2022-12-04T07:38:06.053Z,64.07
2022-12-04T07:41:11.207Z,54.10
2022-12-04T07:44:13.837Z,59.45
2022-12-04T07:47:16.903Z,56.20
2022-12-04T07:50:19.537Z,51.30
2022-12-04T07:53:22.198Z,79.80
2022-12-04T07:56:25.227Z,70.93
2022-12-04T07:59:28.182Z,52.43
2022-12-04T08:02:30.840Z,56.40
2022-12-04T08:05:33.729Z,76.57
2022-12-04T08:08:36.983Z,72.15
2022-12-04T08:11:39.952Z,66.13
2022-12-04T08:14:42.442Z,63.33
2022-12-04T08:17:45.314Z,64.18
2022-12-04T08:20:47.899Z,66.90
2022-12-04T08:23:52.256Z,70.13
2022-12-04T08:26:54.931Z,75.72
2022-12-04T08:29:58.090Z,65.97
2022-12-04T08:33:01.105Z,54.75
2022-12-04T08:36:07.927Z,50.53
2022-12-04T08:39:12.852Z,47.75
2022-12-04T08:42:15.782Z,48.97
2022-12-04T08:45:18.274Z,49.40
2022-12-04T08:48:21.356Z,50.00
2022-12-04T08:51:27.174Z,65.50
2022-12-04T08:54:35.808Z,56.63
2022-12-04T08:57:38.762Z,61.65
2022-12-04T09:00:42.501Z,66.07
2022-12-04T09:03:45.383Z,67.78
2022-12-04T09:06:48.357Z,51.22
2022-12-04T09:09:52.556Z,45.88
2022-12-04T09:12:55.667Z,40.70
2022-12-04T09:15:58.900Z,43.90
2022-12-04T09:19:01.904Z,39.35
2022-12-04T09:22:04.753Z,39.40
2022-12-04T09:25:08.096Z,32.17
2022-12-04T09:28:10.986Z,30.27
2022-12-04T09:31:14.152Z,33.33
2022-12-04T09:34:18.945Z,38.50
2022-12-04T09:37:21.782Z,34.50
2022-12-04T09:40:38.671Z,29.00
2022-12-04T09:43:49.498Z,34.90
2022-12-04T09:46:58.676Z,39.13
2022-12-04T09:50:05.039Z,40.28
2022-12-04T09:53:14.108Z,37.13
2022-12-04T09:56:20.151Z,40.40
2022-12-04T09:59:29.166Z,33.60
2022-12-04T10:02:37.391Z,30.20
2022-12-04T10:05:52.518Z,37.50
2022-12-04T10:09:17.053Z,35.75
2022-12-04T10:12:22.605Z,45.67
2022-12-04T10:15:55.659Z,34.05
2022-12-04T10:19:19.926Z,32.55
2022-12-04T10:22:48.930Z,32.55
2022-12-04T10:25:54.124Z,34.30
2022-12-04T10:29:01.602Z,28.63
2022-12-04T10:32:23.359Z,29.27
2022-12-04T10:35:32.372Z,29.50
2022-12-04T10:38:51.114Z,31.25
2022-12-04T10:42:11.808Z,29.65
2022-12-04T10:45:14.297Z,27.33
2022-12-04T10:48:27.403Z,29.65
2022-12-04T10:51:38.079Z,32.45
2022-12-04T10:54:51.086Z,28.75
2022-12-04T10:57:53.684Z,26.27
2022-12-04T11:01:15.117Z,29.33
2022-12-04T11:04:25.523Z,33.25
2022-12-04T11:07:31.536Z,27.17
2022-12-04T11:10:41.130Z,27.60
2022-12-04T11:13:43.984Z,26.33
2022-12-04T11:17:00.059Z,25.42
2022-12-04T11:20:07.635Z,22.77
2022-12-04T11:23:16.479Z,30.50
2022-12-04T11:26:30.760Z,27.17
2022-12-04T11:29:38.572Z,35.80
2022-12-04T11:32:42.397Z,24.90
2022-12-04T11:35:52.479Z,31.33
2022-12-04T11:39:11.443Z,53.97
2022-12-04T11:42:19.593Z,43.00
2022-12-04T11:45:24.313Z,66.25
2022-12-04T11:48:30.123Z,35.78
2022-12-04T11:52:05.106Z,40.33
2022-12-04T11:55:17.976Z,39.42
2022-12-04T11:58:40.636Z,40.40
2022-12-04T12:01:57.786Z,25.37
2022-12-04T12:05:22.002Z,20.42
2022-12-04T12:08:33.611Z,19.98
2022-12-04T12:11:43.615Z,17.57
2022-12-04T12:15:05.595Z,22.52
2022-12-04T12:18:45.695Z,20.48
2022-12-04T12:22:19.199Z,19.45
2022-12-04T12:25:35.905Z,20.13
2022-12-04T12:28:57.362Z,21.30
2022-12-04T12:32:25.176Z,19.35
2022-12-04T12:35:34.584Z,19.23
2022-12-04T12:38:46.062Z,22.00
2022-12-04T12:41:52.619Z,23.88
2022-12-04T12:45:06.124Z,20.03
2022-12-04T12:48:30.605Z,20.77
2022-12-04T12:51:45.490Z,21.35
2022-12-04T12:54:57.340Z,15.00
2022-12-04T12:58:14.419Z,16.65
2022-12-04T13:01:22.589Z,20.70
2022-12-04T13:04:30.573Z,17.75
2022-12-04T13:08:03.674Z,19.00
2022-12-04T13:11:13.037Z,20.45
2022-12-04T13:14:15.817Z,16.98
2022-12-04T13:17:34.622Z,18.37
2022-12-04T13:26:25.078Z,20.88
2022-12-04T13:29:55.641Z,21.02
2022-12-04T13:33:16.281Z,23.23
2022-12-04T13:36:50.019Z,24.20
2022-12-04T13:40:07.526Z,22.33
2022-12-04T13:43:27.842Z,22.80
2022-12-04T13:46:39.457Z,23.48
2022-12-04T13:49:46.036Z,26.55
2022-12-04T13:52:49.427Z,25.97
2022-12-04T13:55:57.091Z,26.17
2022-12-04T13:59:01.460Z,29.60
2022-12-04T14:02:24.801Z,34.65
2022-12-04T14:05:42.588Z,55.50
2022-12-04T14:08:46.154Z,93.45
2022-12-04T14:11:52.987Z,66.13
2022-12-04T14:15:02.202Z,61.67
2022-12-04T14:18:11.411Z,60.08
2022-12-04T14:21:44.719Z,64.97
2022-12-04T14:24:47.353Z,70.37
2022-12-04T14:27:53.174Z,60.42
2022-12-04T14:31:14.446Z,66.40
2022-12-04T14:34:33.383Z,58.92
2022-12-04T14:37:44.899Z,66.30
2022-12-04T14:40:51.002Z,51.30
2022-12-04T14:43:54.313Z,61.95
2022-12-04T14:47:38.840Z,41.03
2022-12-04T14:50:48.904Z,40.55
2022-12-04T14:54:18.415Z,35.30
2022-12-04T14:57:49.812Z,34.90
2022-12-04T15:00:55.591Z,39.53
2022-12-04T15:04:06.165Z,40.92
2022-12-04T15:07:09.415Z,39.92
2022-12-04T15:10:43.384Z,32.60
2022-12-04T15:13:46.284Z,39.25
2022-12-04T15:16:48.990Z,31.50
2022-12-04T15:19:52.105Z,25.27
2022-12-04T15:22:58.791Z,27.38
2022-12-04T15:26:08.124Z,26.30
2022-12-04T15:29:20.107Z,27.80
2022-12-04T15:32:28.879Z,25.70
2022-12-04T15:35:33.804Z,47.90
2022-12-04T15:38:37.008Z,28.58
2022-12-04T15:41:39.869Z,38.30
2022-12-04T15:44:55.322Z,43.78
2022-12-04T15:47:58.775Z,73.05
2022-12-04T15:51:06.149Z,66.67
2022-12-04T15:54:19.783Z,79.68
2022-12-04T15:57:30.673Z,83.95
2022-12-04T16:00:37.112Z,74.33
2022-12-04T16:03:43.754Z,104.07
2022-12-04T16:06:48.320Z,127.90
2022-12-04T16:10:04.022Z,123.85
2022-12-04T16:13:07.208Z,296.80
2022-12-04T16:16:22.393Z,206.43
2022-12-04T16:19:37.171Z,169.98
2022-12-04T16:22:41.718Z,211.53
2022-12-04T16:25:44.449Z,183.50
2022-12-04T16:28:47.859Z,183.90
2022-12-04T16:31:51.282Z,160.03
2022-12-04T16:34:55.400Z,186.82
2022-12-04T16:37:58.891Z,166.13
2022-12-04T16:41:02.081Z,182.93
2022-12-04T16:44:11.666Z,200.07
2022-12-04T16:47:15.471Z,164.35
2022-12-04T16:50:18.567Z,157.32
2022-12-04T16:53:22.887Z,170.53
2022-12-04T16:56:25.612Z,185.32
2022-12-04T16:59:28.643Z,138.60
2022-12-04T17:02:31.550Z,167.53
2022-12-04T17:05:36.121Z,160.82
2022-12-04T17:08:39.120Z,167.40
2022-12-04T17:11:42.934Z,172.07
2022-12-04T17:14:45.786Z,164.23
2022-12-04T17:17:48.784Z,154.45
2022-12-04T17:20:51.613Z,153.68
2022-12-04T17:23:54.490Z,162.13
2022-12-04T17:26:58.276Z,159.95
2022-12-04T17:30:01.393Z,140.20
2022-12-04T17:33:05.146Z,148.93
2022-12-04T17:36:12.903Z,154.43
2022-12-04T17:39:16.063Z,146.32
2022-12-04T17:42:20.401Z,143.13
2022-12-04T17:45:23.067Z,141.45
2022-12-04T17:48:27.642Z,126.90
2022-12-04T17:51:30.547Z,127.43
2022-12-04T17:54:33.953Z,108.23
2022-12-04T17:57:36.671Z,105.93
2022-12-04T18:00:39.393Z,91.55
2022-12-04T18:03:43.870Z,83.20
2022-12-04T18:06:46.676Z,77.80
2022-12-04T18:09:49.622Z,80.82
2022-12-04T18:12:52.234Z,80.75
2022-12-04T18:15:55.067Z,75.28
2022-12-04T18:18:59.991Z,76.25
2022-12-04T18:22:03.083Z,108.78
2022-12-04T18:25:07.702Z,113.03
2022-12-04T18:28:10.400Z,124.90
2022-12-04T18:31:14.880Z,112.80
2022-12-04T18:34:17.730Z,124.73
2022-12-04T18:37:20.793Z,111.15
2022-12-04T18:40:25.166Z,128.13
2022-12-04T18:43:28.339Z,115.32
2022-12-04T18:46:31.190Z,107.10
2022-12-04T18:49:34.355Z,111.25
2022-12-04T18:52:38.436Z,108.82
2022-12-04T18:55:41.620Z,113.17
2022-12-04T18:58:46.521Z,108.50
2022-12-04T19:01:50.506Z,109.00
2022-12-04T19:04:53.170Z,108.43
2022-12-04T19:07:57.140Z,119.68
2022-12-04T19:11:14.246Z,118.32
2022-12-04T19:14:23.516Z,158.57
2022-12-04T19:17:26.779Z,143.57
2022-12-04T19:20:30.033Z,137.13
2022-12-04T19:23:33.655Z,128.35
2022-12-04T19:26:36.780Z,130.80
2022-12-04T19:29:40.680Z,113.03
2022-12-04T19:32:43.933Z,122.32
2022-12-04T19:36:03.071Z,104.63
2022-12-04T19:39:08.220Z,111.20
2022-12-04T19:42:11.506Z,105.55
2022-12-04T19:45:14.546Z,111.50
2022-12-04T19:48:17.690Z,100.90
2022-12-04T19:51:22.022Z,104.03
2022-12-04T19:54:25.653Z,97.50
2022-12-04T19:57:28.733Z,102.43
2022-12-04T20:00:31.502Z,99.63
2022-12-04T20:03:35.903Z,117.85
2022-12-04T20:06:41.774Z,100.10
2022-12-04T20:09:51.967Z,99.78
2022-12-04T20:12:55.841Z,102.40
2022-12-04T20:16:07.187Z,103.22
2022-12-04T20:19:14.722Z,94.05
2022-12-04T20:22:19.275Z,99.85
2022-12-04T20:25:22.191Z,88.10
2022-12-04T20:28:25.391Z,84.70
2022-12-04T20:31:40.641Z,87.07
2022-12-04T20:34:44.137Z,95.10
2022-12-04T20:37:46.908Z,115.03
2022-12-04T20:40:49.884Z,91.93
2022-12-04T20:43:53.078Z,85.18
2022-12-04T20:46:56.033Z,86.90
2022-12-04T20:49:59.220Z,115.28
2022-12-04T20:53:02.526Z,121.22
2022-12-04T20:56:05.634Z,101.07
2022-12-04T20:59:13.379Z,100.47
2022-12-04T21:02:16.059Z,113.05
2022-12-04T21:05:18.978Z,96.35
2022-12-04T21:08:41.679Z,91.47
2022-12-04T21:11:46.808Z,89.25
2022-12-04T21:15:07.987Z,98.85
2022-12-04T21:18:10.950Z,91.47
2022-12-04T21:21:13.813Z,92.93
2022-12-04T21:24:19.602Z,95.95
2022-12-04T21:27:22.448Z,95.60
2022-12-04T21:30:25.386Z,104.80
2022-12-04T21:33:29.218Z,114.28
2022-12-04T21:36:32.299Z,111.38
2022-12-04T21:39:36.039Z,103.97
2022-12-04T21:42:39.047Z,104.05
2022-12-04T21:45:42.162Z,110.32
2022-12-04T21:48:44.795Z,112.25
2022-12-04T21:52:02.836Z,110.45
2022-12-04T21:55:05.840Z,92.78
2022-12-04T21:58:08.566Z,102.20
2022-12-04T22:01:13.247Z,98.53
2022-12-04T22:04:16.167Z,96.05
2022-12-04T22:07:18.933Z,91.07
2022-12-04T22:10:21.371Z,102.93
2022-12-04T22:13:24.688Z,105.50
2022-12-04T22:16:30.655Z,106.75
2022-12-04T22:19:34.179Z,90.20
2022-12-04T22:22:36.907Z,96.72
2022-12-04T22:25:39.779Z,97.47
2022-12-04T22:28:43.048Z,94.50
2022-12-04T22:31:45.722Z,87.50
2022-12-04T22:34:49.286Z,95.30
2022-12-04T22:37:52.042Z,95.68
2022-12-04T22:40:54.483Z,96.27
2022-12-04T22:43:57.174Z,93.38
2022-12-04T22:47:00.055Z,103.53
2022-12-04T22:50:03.102Z,100.95
2022-12-04T22:53:05.845Z,92.80
2022-12-04T22:56:29.714Z,97.60
2022-12-04T22:59:32.346Z,96.18
2022-12-04T23:02:35.133Z,94.67
2022-12-04T23:05:37.745Z,100.78
2022-12-04T23:08:41.396Z,95.97
2022-12-04T23:11:44.535Z,111.90
2022-12-04T23:14:47.071Z,117.55
2022-12-04T23:17:49.604Z,107.93
2022-12-04T23:20:52.522Z,117.20
2022-12-04T23:23:55.582Z,119.75
2022-12-04T23:26:58.300Z,105.60
2022-12-04T23:30:01.200Z,109.57
2022-12-04T23:33:04.070Z,107.13
2022-12-04T23:36:08.192Z,101.72
2022-12-04T23:39:10.917Z,96.25
2022-12-04T23:42:13.384Z,101.37
2022-12-04T23:45:16.427Z,105.60
2022-12-04T23:48:19.426Z,102.20
2022-12-04T23:51:22.988Z,97.53
2022-12-04T23:54:25.763Z,97.68
2022-12-04T23:57:31.116Z,93.32
